sensor_id;sensor_type;location;lat;lon;timestamp;P1;durP1;ratioP1;P2;durP2;ratioP2
25199;SDS011;33094;48.782;9.162;2024-01-27T00:16:12;7.38;;;2.22;;
25199;SDS011;33094;48.782;9.162;2024-01-27T00:18:39;6.50;;;2.17;;
25199;SDS011;33094;48.782;9.162;2024-01-27T00:21:07;6.82;;;2.60;;
25199;SDS011;33094;48.782;9.162;2024-01-27T00:23:35;6.38;;;2.72;;
25199;SDS011;33094;48.782;9.162;2024-01-27T00:26:02;4.20;;;2.17;;
25199;SDS011;33094;48.782;9.162;2024-01-27T00:28:32;3.88;;;1.60;;
25199;SDS011;33094;48.782;9.162;2024-01-27T00:31:19;10.50;;;2.17;;
25199;SDS011;33094;48.782;9.162;2024-01-27T00:49:20;4.15;;;1.55;;
25199;SDS011;33094;48.782;9.162;2024-01-27T00:51:55;7.45;;;1.70;;
25199;SDS011;33094;48.782;9.162;2024-01-27T00:54:22;5.80;;;2.00;;
25199;SDS011;33094;48.782;9.162;2024-01-27T00:56:50;4.90;;;1.58;;
25199;SDS011;33094;48.782;9.162;2024-01-27T00:59:19;4.30;;;2.15;;
25199;SDS011;33094;48.782;9.162;2024-01-27T01:01:51;3.28;;;2.00;;
25199;SDS011;33094;48.782;9.162;2024-01-27T01:04:23;4.32;;;1.83;;
25199;SDS011;33094;48.782;9.162;2024-01-27T01:06:49;8.60;;;2.10;;
25199;SDS011;33094;48.782;9.162;2024-01-27T01:19:53;3.17;;;1.80;;
25199;SDS011;33094;48.782;9.162;2024-01-27T01:27:30;5.72;;;1.48;;
25199;SDS011;33094;48.782;9.162;2024-01-27T01:29:56;2.83;;;1.52;;
25199;SDS011;33094;48.782;9.162;2024-01-27T01:32:21;6.93;;;1.67;;
25199;SDS011;33094;48.782;9.162;2024-01-27T01:34:47;1.60;;;1.40;;
25199;SDS011;33094;48.782;9.162;2024-01-27T01:42:16;3.08;;;1.55;;
25199;SDS011;33094;48.782;9.162;2024-01-27T01:44:45;6.10;;;2.00;;
25199;SDS011;33094;48.782;9.162;2024-01-27T01:47:12;3.60;;;1.80;;
25199;SDS011;33094;48.782;9.162;2024-01-27T01:49:38;4.45;;;1.90;;
25199;SDS011;33094;48.782;9.162;2024-01-27T01:52:05;6.40;;;2.58;;
25199;SDS011;33094;48.782;9.162;2024-01-27T01:54:31;2.90;;;1.90;;
25199;SDS011;33094;48.782;9.162;2024-01-27T01:57:12;7.95;;;1.80;;
25199;SDS011;33094;48.782;9.162;2024-01-27T01:59:40;4.72;;;2.10;;
25199;SDS011;33094;48.782;9.162;2024-01-27T02:02:06;9.57;;;2.13;;
25199;SDS011;33094;48.782;9.162;2024-01-27T02:04:41;3.03;;;1.65;;
25199;SDS011;33094;48.782;9.162;2024-01-27T02:07:08;6.00;;;1.77;;
25199;SDS011;33094;48.782;9.162;2024-01-27T02:09:35;1.75;;;1.58;;
25199;SDS011;33094;48.782;9.162;2024-01-27T02:12:01;4.20;;;1.30;;
25199;SDS011;33094;48.782;9.162;2024-01-27T02:14:27;3.42;;;1.90;;
25199;SDS011;33094;48.782;9.162;2024-01-27T02:19:19;7.83;;;1.77;;
25199;SDS011;33094;48.782;9.162;2024-01-27T02:21:46;3.10;;;1.90;;
25199;SDS011;33094;48.782;9.162;2024-01-27T02:24:12;5.47;;;1.40;;
25199;SDS011;33094;48.782;9.162;2024-01-27T02:26:39;6.28;;;2.13;;
25199;SDS011;33094;48.782;9.162;2024-01-27T02:29:05;2.25;;;1.27;;
25199;SDS011;33094;48.782;9.162;2024-01-27T02:31:32;3.13;;;1.48;;
25199;SDS011;33094;48.782;9.162;2024-01-27T02:33:57;3.47;;;1.63;;
25199;SDS011;33094;48.782;9.162;2024-01-27T02:36:23;3.13;;;1.30;;
25199;SDS011;33094;48.782;9.162;2024-01-27T02:38:49;7.05;;;1.88;;
25199;SDS011;33094;48.782;9.162;2024-01-27T02:41:16;2.70;;;1.48;;
25199;SDS011;33094;48.782;9.162;2024-01-27T02:43:43;3.30;;;1.50;;
25199;SDS011;33094;48.782;9.162;2024-01-27T02:46:12;4.95;;;2.10;;
25199;SDS011;33094;48.782;9.162;2024-01-27T02:48:41;2.20;;;1.52;;
25199;SDS011;33094;48.782;9.162;2024-01-27T02:51:08;2.58;;;1.42;;
25199;SDS011;33094;48.782;9.162;2024-01-27T02:53:34;5.97;;;1.70;;
25199;SDS011;33094;48.782;9.162;2024-01-27T02:56:00;5.20;;;1.67;;
25199;SDS011;33094;48.782;9.162;2024-01-27T02:58:26;2.93;;;1.47;;
25199;SDS011;33094;48.782;9.162;2024-01-27T03:00:51;3.47;;;1.92;;
25199;SDS011;33094;48.782;9.162;2024-01-27T03:03:17;7.57;;;1.90;;
25199;SDS011;33094;48.782;9.162;2024-01-27T03:05:46;3.80;;;1.60;;
25199;SDS011;33094;48.782;9.162;2024-01-27T03:08:11;2.13;;;1.52;;
25199;SDS011;33094;48.782;9.162;2024-01-27T03:10:38;11.48;;;2.22;;
25199;SDS011;33094;48.782;9.162;2024-01-27T03:13:04;1.95;;;1.38;;
25199;SDS011;33094;48.782;9.162;2024-01-27T04:02:20;5.50;;;2.22;;
25199;SDS011;33094;48.782;9.162;2024-01-27T04:04:46;2.83;;;2.00;;
25199;SDS011;33094;48.782;9.162;2024-01-27T04:07:12;4.20;;;1.85;;
25199;SDS011;33094;48.782;9.162;2024-01-27T04:09:41;5.57;;;1.58;;
25199;SDS011;33094;48.782;9.162;2024-01-27T04:12:07;6.37;;;2.30;;
25199;SDS011;33094;48.782;9.162;2024-01-27T04:14:32;3.33;;;2.08;;
25199;SDS011;33094;48.782;9.162;2024-01-27T04:16:59;20.83;;;2.90;;
25199;SDS011;33094;48.782;9.162;2024-01-27T04:19:25;5.63;;;2.47;;
25199;SDS011;33094;48.782;9.162;2024-01-27T04:24:21;12.20;;;2.28;;
25199;SDS011;33094;48.782;9.162;2024-01-27T04:29:14;2.28;;;1.80;;
25199;SDS011;33094;48.782;9.162;2024-01-27T04:31:41;1.27;;;1.08;;
25199;SDS011;33094;48.782;9.162;2024-01-27T04:34:07;3.90;;;1.50;;
25199;SDS011;33094;48.782;9.162;2024-01-27T04:36:32;6.85;;;2.30;;
25199;SDS011;33094;48.782;9.162;2024-01-27T04:38:58;2.95;;;2.17;;
25199;SDS011;33094;48.782;9.162;2024-01-27T04:41:24;1.48;;;1.30;;
25199;SDS011;33094;48.782;9.162;2024-01-27T04:43:49;1.27;;;1.17;;
25199;SDS011;33094;48.782;9.162;2024-01-27T04:46:15;9.27;;;1.70;;
25199;SDS011;33094;48.782;9.162;2024-01-27T04:48:40;4.70;;;1.90;;
25199;SDS011;33094;48.782;9.162;2024-01-27T04:51:06;2.35;;;1.27;;
25199;SDS011;33094;48.782;9.162;2024-01-27T04:53:32;3.42;;;1.80;;
25199;SDS011;33094;48.782;9.162;2024-01-27T04:55:57;2.10;;;1.38;;
25199;SDS011;33094;48.782;9.162;2024-01-27T04:58:23;6.45;;;2.08;;
25199;SDS011;33094;48.782;9.162;2024-01-27T05:00:50;6.32;;;1.60;;
25199;SDS011;33094;48.782;9.162;2024-01-27T05:03:15;6.93;;;1.92;;
25199;SDS011;33094;48.782;9.162;2024-01-27T05:05:43;12.68;;;1.95;;
25199;SDS011;33094;48.782;9.162;2024-01-27T05:08:09;5.47;;;2.20;;
25199;SDS011;33094;48.782;9.162;2024-01-27T05:10:35;2.47;;;1.73;;
25199;SDS011;33094;48.782;9.162;2024-01-27T05:13:03;8.32;;;2.08;;
25199;SDS011;33094;48.782;9.162;2024-01-27T05:15:32;5.05;;;1.77;;
25199;SDS011;33094;48.782;9.162;2024-01-27T05:17:57;2.67;;;1.50;;
25199;SDS011;33094;48.782;9.162;2024-01-27T05:20:23;1.45;;;1.35;;
25199;SDS011;33094;48.782;9.162;2024-01-27T05:22:50;2.97;;;1.75;;
25199;SDS011;33094;48.782;9.162;2024-01-27T05:25:15;4.90;;;2.10;;
25199;SDS011;33094;48.782;9.162;2024-01-27T05:27:43;6.32;;;2.00;;
25199;SDS011;33094;48.782;9.162;2024-01-27T05:32:35;4.33;;;1.83;;
25199;SDS011;33094;48.782;9.162;2024-01-27T05:35:00;3.55;;;1.90;;
25199;SDS011;33094;48.782;9.162;2024-01-27T05:37:28;6.60;;;1.55;;
25199;SDS011;33094;48.782;9.162;2024-01-27T05:39:53;7.90;;;2.17;;
25199;SDS011;33094;48.782;9.162;2024-01-27T05:42:19;9.48;;;2.30;;
25199;SDS011;33094;48.782;9.162;2024-01-27T05:44:45;10.10;;;2.28;;
25199;SDS011;33094;48.782;9.162;2024-01-27T05:47:10;4.57;;;1.80;;
25199;SDS011;33094;48.782;9.162;2024-01-27T05:49:37;6.05;;;1.70;;
25199;SDS011;33094;48.782;9.162;2024-01-27T05:52:05;4.18;;;2.38;;
25199;SDS011;33094;48.782;9.162;2024-01-27T05:54:30;4.07;;;2.63;;
25199;SDS011;33094;48.782;9.162;2024-01-27T05:56:59;4.32;;;2.45;;
25199;SDS011;33094;48.782;9.162;2024-01-27T05:59:28;4.63;;;2.25;;
25199;SDS011;33094;48.782;9.162;2024-01-27T06:01:54;8.70;;;2.53;;
25199;SDS011;33094;48.782;9.162;2024-01-27T06:04:19;4.80;;;2.33;;
25199;SDS011;33094;48.782;9.162;2024-01-27T06:06:45;5.43;;;2.10;;
25199;SDS011;33094;48.782;9.162;2024-01-27T06:09:12;9.15;;;2.78;;
25199;SDS011;33094;48.782;9.162;2024-01-27T06:11:40;4.10;;;2.00;;
25199;SDS011;33094;48.782;9.162;2024-01-27T06:14:07;8.60;;;2.42;;
25199;SDS011;33094;48.782;9.162;2024-01-27T06:16:33;7.80;;;2.58;;
25199;SDS011;33094;48.782;9.162;2024-01-27T06:19:00;4.50;;;2.35;;
25199;SDS011;33094;48.782;9.162;2024-01-27T06:21:27;5.97;;;2.28;;
25199;SDS011;33094;48.782;9.162;2024-01-27T06:23:53;3.42;;;2.03;;
25199;SDS011;33094;48.782;9.162;2024-01-27T06:26:25;6.32;;;2.13;;
25199;SDS011;33094;48.782;9.162;2024-01-27T06:28:53;4.43;;;2.42;;
25199;SDS011;33094;48.782;9.162;2024-01-27T06:31:19;4.72;;;2.05;;
25199;SDS011;33094;48.782;9.162;2024-01-27T06:33:45;4.95;;;2.15;;
25199;SDS011;33094;48.782;9.162;2024-01-27T06:36:10;4.45;;;2.40;;
25199;SDS011;33094;48.782;9.162;2024-01-27T06:38:40;3.72;;;1.80;;
25199;SDS011;33094;48.782;9.162;2024-01-27T06:41:09;5.85;;;2.15;;
25199;SDS011;33094;48.782;9.162;2024-01-27T06:43:35;3.63;;;1.85;;
25199;SDS011;33094;48.782;9.162;2024-01-27T06:46:01;3.33;;;2.30;;
25199;SDS011;33094;48.782;9.162;2024-01-27T06:48:26;7.07;;;2.72;;
25199;SDS011;33094;48.782;9.162;2024-01-27T06:50:52;3.83;;;2.53;;
25199;SDS011;33094;48.782;9.162;2024-01-27T06:53:19;12.45;;;2.85;;
25199;SDS011;33094;48.782;9.162;2024-01-27T06:55:46;3.42;;;2.92;;
25199;SDS011;33094;48.782;9.162;2024-01-27T06:58:14;3.20;;;2.03;;
25199;SDS011;33094;48.782;9.162;2024-01-27T07:00:41;6.53;;;2.25;;
25199;SDS011;33094;48.782;9.162;2024-01-27T07:03:07;3.50;;;2.00;;
25199;SDS011;33094;48.782;9.162;2024-01-27T07:05:33;6.10;;;2.63;;
25199;SDS011;33094;48.782;9.162;2024-01-27T07:08:04;3.80;;;2.10;;
25199;SDS011;33094;48.782;9.162;2024-01-27T07:10:32;2.75;;;2.00;;
25199;SDS011;33094;48.782;9.162;2024-01-27T07:12:58;6.30;;;2.78;;
25199;SDS011;33094;48.782;9.162;2024-01-27T07:15:25;9.07;;;2.22;;
25199;SDS011;33094;48.782;9.162;2024-01-27T07:17:53;13.75;;;3.33;;
25199;SDS011;33094;48.782;9.162;2024-01-27T07:20:20;4.97;;;2.40;;
25199;SDS011;33094;48.782;9.162;2024-01-27T07:22:49;3.42;;;2.10;;
25199;SDS011;33094;48.782;9.162;2024-01-27T07:25:16;5.37;;;2.43;;
25199;SDS011;33094;48.782;9.162;2024-01-27T07:27:45;7.05;;;2.38;;
25199;SDS011;33094;48.782;9.162;2024-01-27T07:30:11;8.60;;;2.47;;
25199;SDS011;33094;48.782;9.162;2024-01-27T07:32:37;8.05;;;3.35;;
25199;SDS011;33094;48.782;9.162;2024-01-27T07:35:02;6.88;;;3.25;;
25199;SDS011;33094;48.782;9.162;2024-01-27T07:37:30;4.93;;;2.75;;
25199;SDS011;33094;48.782;9.162;2024-01-27T07:39:56;5.97;;;3.17;;
25199;SDS011;33094;48.782;9.162;2024-01-27T07:42:25;9.20;;;2.92;;
25199;SDS011;33094;48.782;9.162;2024-01-27T07:44:55;9.63;;;2.92;;
25199;SDS011;33094;48.782;9.162;2024-01-27T07:47:21;9.63;;;3.00;;
25199;SDS011;33094;48.782;9.162;2024-01-27T07:49:47;7.93;;;3.08;;
25199;SDS011;33094;48.782;9.162;2024-01-27T07:52:14;7.07;;;2.50;;
25199;SDS011;33094;48.782;9.162;2024-01-27T07:54:41;9.32;;;3.38;;
25199;SDS011;33094;48.782;9.162;2024-01-27T07:57:06;3.85;;;2.38;;
25199;SDS011;33094;48.782;9.162;2024-01-27T07:59:32;10.57;;;3.35;;
25199;SDS011;33094;48.782;9.162;2024-01-27T08:01:59;3.72;;;2.65;;
25199;SDS011;33094;48.782;9.162;2024-01-27T08:06:51;7.43;;;3.03;;
25199;SDS011;33094;48.782;9.162;2024-01-27T08:09:18;8.70;;;2.90;;
25199;SDS011;33094;48.782;9.162;2024-01-27T08:11:44;8.20;;;3.70;;
25199;SDS011;33094;48.782;9.162;2024-01-27T08:14:10;6.97;;;3.00;;
25199;SDS011;33094;48.782;9.162;2024-01-27T08:16:37;5.43;;;2.67;;
25199;SDS011;33094;48.782;9.162;2024-01-27T08:19:03;7.18;;;3.08;;
25199;SDS011;33094;48.782;9.162;2024-01-27T08:21:30;10.32;;;3.13;;
25199;SDS011;33094;48.782;9.162;2024-01-27T08:23:55;8.77;;;3.88;;
25199;SDS011;33094;48.782;9.162;2024-01-27T08:26:21;9.82;;;3.70;;
25199;SDS011;33094;48.782;9.162;2024-01-27T08:31:29;6.13;;;3.78;;
25199;SDS011;33094;48.782;9.162;2024-01-27T08:34:22;8.77;;;3.93;;
25199;SDS011;33094;48.782;9.162;2024-01-27T08:36:48;16.70;;;3.90;;
25199;SDS011;33094;48.782;9.162;2024-01-27T08:39:20;10.15;;;4.28;;
25199;SDS011;33094;48.782;9.162;2024-01-27T08:41:46;12.30;;;4.60;;
25199;SDS011;33094;48.782;9.162;2024-01-27T08:44:21;8.27;;;4.38;;
25199;SDS011;33094;48.782;9.162;2024-01-27T08:46:52;14.75;;;4.45;;
25199;SDS011;33094;48.782;9.162;2024-01-27T08:49:18;9.90;;;4.55;;
25199;SDS011;33094;48.782;9.162;2024-01-27T08:51:44;8.27;;;4.40;;
25199;SDS011;33094;48.782;9.162;2024-01-27T08:54:14;10.85;;;4.80;;
25199;SDS011;33094;48.782;9.162;2024-01-27T08:57:23;9.38;;;4.97;;
25199;SDS011;33094;48.782;9.162;2024-01-27T09:10:51;8.30;;;4.22;;
25199;SDS011;33094;48.782;9.162;2024-01-27T09:13:18;9.52;;;5.03;;
25199;SDS011;33094;48.782;9.162;2024-01-27T09:16:01;12.05;;;4.78;;
25199;SDS011;33094;48.782;9.162;2024-01-27T09:20:54;5.03;;;3.60;;
25199;SDS011;33094;48.782;9.162;2024-01-27T09:23:20;10.75;;;4.18;;
25199;SDS011;33094;48.782;9.162;2024-01-27T09:25:47;9.52;;;4.63;;
25199;SDS011;33094;48.782;9.162;2024-01-27T16:15:53;22.55;;;7.80;;
25199;SDS011;33094;48.782;9.162;2024-01-27T17:40:06;10.93;;;4.45;;
25199;SDS011;33094;48.782;9.162;2024-01-27T17:42:33;11.65;;;4.88;;
25199;SDS011;33094;48.782;9.162;2024-01-27T17:45:03;12.85;;;5.30;;
25199;SDS011;33094;48.782;9.162;2024-01-27T17:47:33;13.57;;;5.50;;
25199;SDS011;33094;48.782;9.162;2024-01-27T17:50:03;9.10;;;5.85;;
25199;SDS011;33094;48.782;9.162;2024-01-27T17:52:35;13.85;;;4.93;;
25199;SDS011;33094;48.782;9.162;2024-01-27T17:55:03;14.40;;;5.20;;
25199;SDS011;33094;48.782;9.162;2024-01-27T17:57:31;9.02;;;4.40;;
25199;SDS011;33094;48.782;9.162;2024-01-27T17:59:58;9.27;;;4.70;;
25199;SDS011;33094;48.782;9.162;2024-01-27T18:02:23;15.25;;;5.63;;
25199;SDS011;33094;48.782;9.162;2024-01-27T18:05:05;8.63;;;5.40;;
25199;SDS011;33094;48.782;9.162;2024-01-27T18:26:43;12.85;;;5.40;;
25199;SDS011;33094;48.782;9.162;2024-01-27T18:29:09;14.80;;;5.30;;
25199;SDS011;33094;48.782;9.162;2024-01-27T18:31:35;12.02;;;5.68;;
25199;SDS011;33094;48.782;9.162;2024-01-27T18:34:07;14.88;;;4.97;;
25199;SDS011;33094;48.782;9.162;2024-01-27T18:36:35;9.68;;;4.78;;
25199;SDS011;33094;48.782;9.162;2024-01-27T18:39:02;14.60;;;5.72;;
25199;SDS011;33094;48.782;9.162;2024-01-27T18:42:15;16.42;;;5.43;;
25199;SDS011;33094;48.782;9.162;2024-01-27T18:45:39;13.38;;;5.10;;
25199;SDS011;33094;48.782;9.162;2024-01-27T18:48:55;12.82;;;4.28;;
25199;SDS011;33094;48.782;9.162;2024-01-27T18:51:51;9.77;;;4.47;;
25199;SDS011;33094;48.782;9.162;2024-01-27T18:54:34;10.02;;;5.00;;
25199;SDS011;33094;48.782;9.162;2024-01-27T18:57:26;10.60;;;4.60;;
25199;SDS011;33094;48.782;9.162;2024-01-27T19:00:22;10.50;;;5.13;;
25199;SDS011;33094;48.782;9.162;2024-01-27T19:03:19;12.45;;;5.85;;
25199;SDS011;33094;48.782;9.162;2024-01-27T19:06:51;15.68;;;7.00;;
25199;SDS011;33094;48.782;9.162;2024-01-27T19:33:18;10.90;;;5.63;;
25199;SDS011;33094;48.782;9.162;2024-01-27T19:36:28;14.55;;;5.40;;
25199;SDS011;33094;48.782;9.162;2024-01-27T19:39:46;14.82;;;5.93;;
25199;SDS011;33094;48.782;9.162;2024-01-27T19:43:04;9.83;;;5.83;;
25199;SDS011;33094;48.782;9.162;2024-01-27T19:46:20;15.60;;;6.53;;
25199;SDS011;33094;48.782;9.162;2024-01-27T19:54:41;14.50;;;5.82;;
25199;SDS011;33094;48.782;9.162;2024-01-27T19:59:34;15.07;;;5.30;;
25199;SDS011;33094;48.782;9.162;2024-01-27T20:02:02;10.25;;;5.03;;
25199;SDS011;33094;48.782;9.162;2024-01-27T20:04:29;15.75;;;5.57;;
25199;SDS011;33094;48.782;9.162;2024-01-27T20:06:58;8.43;;;4.80;;
25199;SDS011;33094;48.782;9.162;2024-01-27T20:09:27;14.80;;;5.45;;
25199;SDS011;33094;48.782;9.162;2024-01-27T20:11:53;18.20;;;6.15;;
25199;SDS011;33094;48.782;9.162;2024-01-27T20:14:31;14.60;;;5.47;;
25199;SDS011;33094;48.782;9.162;2024-01-27T20:16:57;13.55;;;5.85;;
25199;SDS011;33094;48.782;9.162;2024-01-27T20:19:31;14.57;;;5.30;;
25199;SDS011;33094;48.782;9.162;2024-01-27T20:22:03;12.98;;;5.05;;
25199;SDS011;33094;48.782;9.162;2024-01-27T20:24:30;9.98;;;4.90;;
25199;SDS011;33094;48.782;9.162;2024-01-27T20:26:59;10.50;;;5.50;;
25199;SDS011;33094;48.782;9.162;2024-01-27T20:29:25;16.58;;;4.88;;
25199;SDS011;33094;48.782;9.162;2024-01-27T21:03:29;12.32;;;4.88;;
25199;SDS011;33094;48.782;9.162;2024-01-27T21:05:57;13.35;;;5.57;;
25199;SDS011;33094;48.782;9.162;2024-01-27T21:08:24;20.03;;;6.83;;
25199;SDS011;33094;48.782;9.162;2024-01-27T21:29:03;14.63;;;6.93;;
25199;SDS011;33094;48.782;9.162;2024-01-27T21:31:33;10.27;;;6.05;;
25199;SDS011;33094;48.782;9.162;2024-01-27T21:34:00;14.07;;;6.18;;
25199;SDS011;33094;48.782;9.162;2024-01-27T21:36:31;13.93;;;5.80;;
25199;SDS011;33094;48.782;9.162;2024-01-27T21:41:32;13.90;;;5.28;;
25199;SDS011;33094;48.782;9.162;2024-01-27T21:43:59;17.52;;;5.85;;
25199;SDS011;33094;48.782;9.162;2024-01-27T21:46:28;11.80;;;5.13;;
25199;SDS011;33094;48.782;9.162;2024-01-27T21:48:54;14.25;;;5.50;;
25199;SDS011;33094;48.782;9.162;2024-01-27T21:51:25;11.25;;;5.15;;
25199;SDS011;33094;48.782;9.162;2024-01-27T21:53:51;8.15;;;4.80;;
25199;SDS011;33094;48.782;9.162;2024-01-27T21:56:16;10.30;;;5.75;;
25199;SDS011;33094;48.782;9.162;2024-01-27T21:58:42;10.93;;;5.13;;
25199;SDS011;33094;48.782;9.162;2024-01-27T22:01:09;13.45;;;5.55;;
25199;SDS011;33094;48.782;9.162;2024-01-27T22:03:37;10.43;;;5.03;;
25199;SDS011;33094;48.782;9.162;2024-01-27T22:06:08;13.13;;;6.07;;
25199;SDS011;33094;48.782;9.162;2024-01-27T22:08:37;15.95;;;6.65;;
25199;SDS011;33094;48.782;9.162;2024-01-27T22:11:15;14.77;;;6.38;;
25199;SDS011;33094;48.782;9.162;2024-01-27T22:13:41;17.63;;;6.43;;
25199;SDS011;33094;48.782;9.162;2024-01-27T22:16:06;13.25;;;6.18;;
25199;SDS011;33094;48.782;9.162;2024-01-27T22:18:32;13.50;;;6.63;;
25199;SDS011;33094;48.782;9.162;2024-01-27T22:23:25;8.70;;;4.70;;
25199;SDS011;33094;48.782;9.162;2024-01-27T22:28:18;11.47;;;5.63;;
25199;SDS011;33094;48.782;9.162;2024-01-27T22:30:43;13.90;;;6.55;;
25199;SDS011;33094;48.782;9.162;2024-01-27T22:33:18;10.80;;;5.63;;
25199;SDS011;33094;48.782;9.162;2024-01-27T22:36:27;10.63;;;5.28;;
25199;SDS011;33094;48.782;9.162;2024-01-27T22:38:58;9.57;;;4.90;;
25199;SDS011;33094;48.782;9.162;2024-01-27T22:42:35;8.15;;;4.35;;
25199;SDS011;33094;48.782;9.162;2024-01-27T22:45:44;9.32;;;5.13;;
25199;SDS011;33094;48.782;9.162;2024-01-27T22:48:34;13.23;;;5.30;;
25199;SDS011;33094;48.782;9.162;2024-01-27T22:51:06;14.73;;;5.70;;
25199;SDS011;33094;48.782;9.162;2024-01-27T22:53:36;9.25;;;5.38;;
25199;SDS011;33094;48.782;9.162;2024-01-27T22:56:05;12.70;;;5.53;;
25199;SDS011;33094;48.782;9.162;2024-01-27T22:58:40;12.93;;;5.30;;
25199;SDS011;33094;48.782;9.162;2024-01-27T23:01:08;11.25;;;5.93;;
25199;SDS011;33094;48.782;9.162;2024-01-27T23:03:50;11.15;;;5.78;;
25199;SDS011;33094;48.782;9.162;2024-01-27T23:06:23;14.05;;;6.38;;
25199;SDS011;33094;48.782;9.162;2024-01-27T23:09:12;12.57;;;5.22;;
25199;SDS011;33094;48.782;9.162;2024-01-27T23:12:21;15.82;;;5.63;;
25199;SDS011;33094;48.782;9.162;2024-01-27T23:15:22;10.75;;;6.18;;
25199;SDS011;33094;48.782;9.162;2024-01-27T23:18:00;10.32;;;5.97;;
25199;SDS011;33094;48.782;9.162;2024-01-27T23:20:58;15.25;;;5.93;;
25199;SDS011;33094;48.782;9.162;2024-01-27T23:24:18;19.17;;;5.78;;
25199;SDS011;33094;48.782;9.162;2024-01-27T23:27:22;15.38;;;5.68;;
25199;SDS011;33094;48.782;9.162;2024-01-27T23:29:53;12.57;;;5.68;;
25199;SDS011;33094;48.782;9.162;2024-01-27T23:32:26;13.25;;;5.97;;
25199;SDS011;33094;48.782;9.162;2024-01-27T23:35:26;9.75;;;5.68;;
25199;SDS011;33094;48.782;9.162;2024-01-27T23:38:21;18.65;;;5.45;;
25199;SDS011;33094;48.782;9.162;2024-01-27T23:40:52;14.35;;;6.10;;
25199;SDS011;33094;48.782;9.162;2024-01-27T23:43:18;14.23;;;6.45;;
25199;SDS011;33094;48.782;9.162;2024-01-27T23:45:44;14.70;;;5.65;;
25199;SDS011;33094;48.782;9.162;2024-01-27T23:48:10;10.02;;;5.07;;
25199;SDS011;33094;48.782;9.162;2024-01-27T23:50:35;12.32;;;5.55;;
25199;SDS011;33094;48.782;9.162;2024-01-27T23:53:03;11.18;;;5.95;;
25199;SDS011;33094;48.782;9.162;2024-01-27T23:55:34;17.92;;;5.78;;
25199;SDS011;33094;48.782;9.162;2024-01-27T23:58:06;10.30;;;5.53;;
